Terminal Aerodrome Forecast
Issued by NWS

Home | Current Version | Previous Version | Text Only | Print | Product List | Glossary On
Versions: 1 2 3 4 5 6 7 8 9 10 11 12 13 14 15 16 17 18 19 20 21
000
FTUS45 KSLC 260529
TAFEVW
TAF
KEVW 260529Z 2606/2706 30007KT P6SM BCFG FEW006 BKN060
     FM261400 24007KT P6SM SCT060 SCT120
     FM270000 20007KT P6SM SCT040 BKN080=

USA.gov is the U.S. government's official web portal to all federal, state and local government web resources and services.